Latest Weather Observations for Frankston

IDV60801

Issued at 6:05 pm EST Saturday 30 August 2014 (issued every 30 minutes, with the page automatically refreshed every 10 minutes)

About weather observations | Map of weather stations | Latest weather observations for VIC | Other Formats
Station Details ID: 086371 Name: FRANKSTON AWS Lat: -38.15 Lon: 145.12 Height: 6.0 m
Data from the previous 72 hours. | See also: Recent months at Frankston
Date/Time
EST
Temp
°C
App
Temp
°C
Dew
Point
Rel
Hum
%
Delta-T
°C
Wind Press
QNH
hPa
Press
MSL
hPa
Rain
since 9 am
mm
Dir
 
Spd
km/h
Gust
km/h
Spd
kts
Gust
kts
30/06:00pm 17.8 16.5 9.9 60 4.2 E 7 13 4 7 - - -
30/05:30pm 17.4 15.1 9.1 58 4.3 NNE 11 13 6 7 - - -
30/05:00pm 16.8 15.6 9.7 63 3.7 N 6 9 3 5 - - -
30/04:30pm 17.8 16.6 8.1 53 5.0 N 4 6 2 3 - - -
30/04:00pm 18.6 17.9 7.1 47 5.8 CALM 0 4 0 2 - - -
30/03:30pm 18.4 17.6 6.6 46 5.9 CALM 0 2 0 1 - - -
30/03:00pm 19.2 18.6 7.6 47 5.9 NNW 0 4 0 2 - - -
30/02:30pm 18.7 17.8 7.8 49 5.6 N 2 4 1 2 - - -
30/02:00pm 16.1 15.3 8.3 60 4.0 WSW 2 6 1 3 - - -
30/01:30pm 15.1 14.6 9.2 68 3.0 SW 2 6 1 3 - - -
30/01:00pm 12.7 10.2 9.7 82 1.5 WSW 13 15 7 8 - - -
30/12:30pm 12.4 10.6 9.6 83 1.4 WSW 9 11 5 6 - - -
30/12:00pm 11.9 10.6 9.3 84 1.3 WSW 6 7 3 4 - - -
30/11:30am 11.6 11.0 8.8 83 1.4 WNW 2 4 1 2 - - -
30/11:00am 11.4 10.4 8.8 84 1.3 WNW 4 4 2 2 - - -
30/10:30am 11.1 10.4 8.5 84 1.3 WNW 2 4 1 2 - - -
30/10:00am 11.1 10.7 8.1 82 1.5 CALM 0 0 0 0 - - -
30/09:30am 10.8 9.3 8.4 85 1.2 N 6 9 3 5 - - -
30/09:00am 10.8 9.3 8.6 86 1.1 N 6 9 3 5 - - -
30/08:30am 10.9 9.9 8.7 86 1.1 N 4 6 2 3 - - -
30/08:00am 10.5 9.8 8.6 88 0.9 E 2 4 1 2 - - -
30/07:30am 9.4 8.2 8.0 91 0.7 ESE 4 6 2 3 - - -
30/07:00am 9.3 8.1 8.1 92 0.6 E 4 7 2 4 - - -
30/06:30am 9.4 7.8 8.2 92 0.6 E 6 7 3 4 - - -
30/06:00am 9.5 8.0 8.3 92 0.6 E 6 9 3 5 - - -
30/05:30am 9.9 8.4 8.5 91 0.7 E 6 9 3 5 - - -
30/05:00am 10.1 8.7 8.7 91 0.7 E 6 9 3 5 - - -
30/04:30am 10.3 8.9 8.9 91 0.7 E 6 7 3 4 - - -
30/04:00am 10.3 9.0 9.1 92 0.6 E 6 7 3 4 - - -
30/03:30am 10.3 9.4 9.2 93 0.5 E 4 7 2 4 - - -
30/03:00am 9.9 8.6 9.1 95 0.4 E 6 9 3 5 - - -
30/02:30am 9.5 7.9 8.9 96 0.3 E 7 13 4 7 - - -
30/02:00am 9.4 7.0 8.5 94 0.4 E 11 20 6 11 - - -
30/01:30am 9.7 7.7 8.6 93 0.5 E 9 17 5 9 - - -
30/01:00am 10.3 9.4 9.2 93 0.5 E 4 9 2 5 - - -
30/12:30am 10.4 10.0 9.6 95 0.4 SSE 2 6 1 3 - - -
30/12:00am 10.3 10.2 9.5 95 0.4 SE 0 0 0 0 - - -
 
Date/Time
EST
Temp
°C
App
Temp
°C
Dew
Point
Rel
Hum
%
Delta-T
°C
Wind Press
QNH
hPa
Press
MSL
hPa
Rain
since 9 am
mm
Dir
 
Spd
km/h
Gust
km/h
Spd
kts
Gust
kts
29/11:30pm 10.7 10.3 9.8 94 0.5 SE 2 6 1 3 - - -
29/11:00pm 10.9 9.8 9.8 93 0.6 SSE 6 11 3 6 - - -
29/10:30pm 11.0 9.9 9.9 93 0.6 SSE 6 9 3 5 - - -
29/10:00pm 11.3 10.0 9.9 91 0.7 S 7 15 4 8 - - -
29/09:30pm 11.2 9.8 9.6 90 0.8 S 7 11 4 6 - - -
29/09:00pm 10.9 10.0 9.3 90 0.8 S 4 7 2 4 - - -
29/08:30pm 10.9 10.0 9.2 89 0.8 S 4 6 2 3 - - -
29/08:00pm 11.1 10.6 9.2 88 0.9 S 2 6 1 3 - - -
29/07:30pm 11.5 10.2 9.2 86 1.2 S 6 9 3 5 - - -
29/07:00pm 11.6 10.7 9.3 86 1.2 S 4 7 2 4 - - -
29/06:30pm 12.1 11.3 9.5 84 1.3 S 4 6 2 3 - - -
29/06:00pm 12.8 11.6 9.6 81 1.6 S 6 9 3 5 - - -
29/05:30pm 12.5 10.6 10.4 87 1.1 WSW 11 11 6 6 - - -
29/05:00pm 12.0 9.6 9.9 87 1.1 W 13 15 7 8 - - -
29/04:30pm 11.9 9.4 9.8 87 1.1 W 13 15 7 8 - - -
29/04:00pm 11.8 9.2 9.5 86 1.2 W 13 15 7 8 - - -
29/03:30pm 11.6 9.2 10.0 90 0.8 WSW 13 13 7 7 - - -
29/03:00pm 11.7 10.0 9.9 89 0.9 WSW 9 11 5 6 - - -
29/02:30pm 11.6 10.3 9.9 89 0.9 W 7 7 4 4 - - -
29/02:00pm 11.5 10.2 9.8 89 0.9 W 7 7 4 4 - - -
29/01:30pm 11.3 10.0 9.9 91 0.7 WNW 7 9 4 5 - - -
29/01:00pm 11.4 10.1 9.8 90 0.8 WNW 7 9 4 5 - - -
29/12:30pm 11.4 9.6 9.3 87 1.1 W 9 9 5 5 - - -
29/12:00pm 11.4 10.1 9.3 87 1.1 WNW 6 7 3 4 - - -
29/11:30am 11.3 10.1 9.6 89 0.9 W 6 7 3 4 - - -
29/11:00am 11.1 9.7 9.4 89 0.9 WNW 7 9 4 5 - - -
29/10:30am 11.2 10.4 9.5 89 0.9 WNW 4 6 2 3 - - -
29/10:00am 12.2 10.8 9.0 81 1.6 SE 6 9 3 5 - - -
29/09:30am 11.8 11.0 9.5 86 1.2 SE 4 7 2 4 - - -
29/09:00am 11.4 10.9 9.3 87 1.1 SE 2 4 1 2 - - -
29/08:30am 10.9 10.1 9.7 92 0.6 ESE 4 6 2 3 - - -
29/08:00am 10.4 10.0 9.9 97 0.3 SE 2 4 1 2 - - -
29/07:30am 10.1 10.2 10.0 99 0.1 CALM 0 2 0 1 - - -
29/07:00am 10.1 9.0 10.0 99 0.1 NE 6 6 3 3 - - -
29/06:30am 10.1 10.2 10.0 99 0.1 CALM 0 2 0 1 - - -
29/06:00am 10.1 10.2 10.0 99 0.1 CALM 0 0 0 0 - - -
29/05:30am 10.0 9.6 9.9 99 0.1 NE 2 7 1 4 - - -
29/05:00am 9.9 9.5 9.8 99 0.1 ESE 2 4 1 2 - - -
29/04:30am 9.8 9.0 9.7 99 0.0 E 4 6 2 3 - - -
29/04:00am 9.8 8.6 9.7 99 0.0 ESE 6 9 3 5 - - -
29/03:30am 9.1 7.7 9.0 99 0.0 ESE 6 7 3 4 - - -
29/03:00am 8.8 7.6 8.2 96 0.3 ESE 4 6 2 3 - - -
29/02:30am 9.1 8.0 8.5 96 0.3 ESE 4 6 2 3 - - -
29/02:00am 8.8 7.9 7.6 92 0.6 ESE 2 4 1 2 - - -
29/01:30am 9.9 9.6 8.8 93 0.5 CALM 0 0 0 0 - - -
29/01:00am 9.8 9.6 9.0 95 0.4 CALM 0 0 0 0 - - -
29/12:30am 9.9 8.9 9.0 94 0.4 SE 4 6 2 3 - - -
29/12:00am 9.7 8.6 8.5 92 0.6 ESE 4 7 2 4 - - -
 
Date/Time
EST
Temp
°C
App
Temp
°C
Dew
Point
Rel
Hum
%
Delta-T
°C
Wind Press
QNH
hPa
Press
MSL
hPa
Rain
since 9 am
mm
Dir
 
Spd
km/h
Gust
km/h
Spd
kts
Gust
kts
28/11:30pm 10.8 10.8 9.7 93 0.6 CALM 0 0 0 0 - - -
28/11:00pm 11.1 10.7 9.7 91 0.7 ENE 2 4 1 2 - - -
28/10:30pm 11.4 11.4 9.8 90 0.8 CALM 0 0 0 0 - - -
28/10:00pm 11.8 11.1 9.9 88 1.0 WSW 4 7 2 4 - - -
28/09:30pm 12.2 11.8 8.3 77 1.9 CALM 0 0 0 0 - - -
28/09:00pm 11.8 11.6 9.0 83 1.4 CALM 0 6 0 3 - - -
28/08:30pm 12.1 10.1 8.8 80 1.6 SE 9 13 5 7 - - -
28/08:00pm 12.2 10.1 9.6 84 1.3 SSE 11 17 6 9 - - -
28/07:30pm 12.4 10.4 10.1 86 1.2 SSE 11 17 6 9 - - -
28/07:00pm 12.8 11.2 10.3 85 1.3 SSE 9 15 5 8 - - -
28/06:30pm 13.4 11.9 10.4 82 1.6 SSE 9 13 5 7 - - -
28/06:00pm 14.3 13.1 10.3 77 2.1 SE 7 11 4 6 - - -
28/05:30pm 15.4 14.0 9.7 69 3.0 SE 7 11 4 6 - - -
28/05:00pm 16.4 15.0 8.9 61 3.9 SE 6 9 3 5 - - -
28/04:30pm 17.1 16.5 9.0 59 4.2 S 2 9 1 5 - - -
28/04:00pm 13.5 10.7 7.1 65 3.1 WSW 11 15 6 8 - - -
28/03:30pm 12.6 10.0 7.7 72 2.4 W 11 13 6 7 - - -
28/03:00pm 11.6 9.9 9.7 88 1.0 WSW 9 11 5 6 - - -
28/02:30pm 11.5 10.0 9.2 86 1.2 WSW 7 9 4 5 - - -
28/02:00pm 11.1 8.9 9.5 90 0.8 WSW 11 13 6 7 - - -
28/01:30pm 11.0 9.5 9.1 88 0.9 WSW 7 9 4 5 - - -
28/01:00pm 10.8 8.9 9.2 90 0.8 WSW 9 9 5 5 - - -
28/12:30pm 10.4 9.0 9.5 94 0.4 W 7 11 4 6 - - -
28/12:00pm 9.9 8.8 9.8 99 0.1 W 6 7 3 4 - - -
28/11:30am 9.4 8.1 9.3 99 0.0 W 6 7 3 4 - - -
28/11:00am 9.2 9.0 9.1 99 0.0 CALM 0 0 0 0 - - -
28/10:30am 9.1 8.5 9.0 99 0.0 NNE 2 4 1 2 - - -
28/10:00am 8.7 7.6 8.6 99 0.0 WNW 4 6 2 3 - - -
28/09:30am 8.5 7.0 8.4 99 0.0 NNW 6 6 3 3 - - -
28/09:00am 8.6 8.3 8.5 99 0.0 CALM 0 4 0 2 - - -
28/08:30am 8.2 7.0 8.1 99 0.0 NNE 4 7 2 4 - - -
28/08:00am 7.9 6.6 7.8 99 0.0 ENE 4 6 2 3 - - -
28/07:30am 7.8 5.6 7.7 99 0.0 NNE 9 11 5 6 - - -
28/07:00am 8.3 6.6 8.2 99 0.0 NE 7 11 4 6 - - -
28/06:30am 8.8 7.8 8.7 99 0.0 NNE 4 9 2 5 - - -
28/06:00am 8.8 8.5 8.7 99 0.0 CALM 0 0 0 0 - - -
28/05:30am 8.8 7.4 8.7 99 0.0 NE 6 9 3 5 - - -
28/05:00am 8.7 7.6 8.6 99 0.0 NE 4 9 2 5 - - -
28/04:30am 8.7 7.6 8.6 99 0.0 E 4 6 2 3 - - -
28/04:00am 8.6 7.9 8.5 99 0.0 ENE 2 6 1 3 - - -
28/03:30am 8.4 7.6 8.3 99 0.0 E 2 7 1 4 - - -
28/03:00am 8.5 7.4 8.4 99 0.0 E 4 7 2 4 - - -
28/02:30am 9.0 8.8 8.9 99 0.0 CALM 0 0 0 0 - - -
28/02:00am 9.0 8.0 8.9 99 0.0 SE 4 7 2 4 - - -
28/01:30am 9.1 8.9 9.0 99 0.0 CALM 0 0 0 0 - - -
28/01:00am 9.0 8.4 8.9 99 0.0 SW 2 4 1 2 - - -
28/12:30am 9.0 8.4 8.9 99 0.0 SW 2 4 1 2 - - -
28/12:00am 9.0 7.5 8.6 97 0.2 SSE 6 7 3 4 - - -
 
Date/Time
EST
Temp
°C
App
Temp
°C
Dew
Point
Rel
Hum
%
Delta-T
°C
Wind Press
QNH
hPa
Press
MSL
hPa
Rain
since 9 am
mm
Dir
 
Spd
km/h
Gust
km/h
Spd
kts
Gust
kts
27/11:30pm 9.2 7.7 8.4 95 0.4 SE 6 9 3 5 - - -
27/11:00pm 9.5 8.5 8.9 96 0.3 S 4 9 2 5 - - -
27/10:30pm 9.5 8.9 8.9 96 0.3 E 2 6 1 3 - - -
27/10:00pm 9.7 8.4 9.1 96 0.3 E 6 7 3 4 - - -
27/09:30pm 9.9 9.4 9.3 96 0.3 E 2 6 1 3 - - -
27/09:00pm 10.0 9.5 9.2 95 0.4 E 2 6 1 3 - - -
27/08:30pm 10.0 9.8 8.9 93 0.5 CALM 0 4 0 2 - - -
27/08:00pm 10.3 10.1 9.1 92 0.6 CALM 0 0 0 0 - - -
27/07:30pm 10.3 9.8 9.2 93 0.5 NNE 2 6 1 3 - - -
27/07:00pm 10.4 8.4 8.8 90 0.8 SE 9 15 5 8 - - -
27/06:30pm 11.2 8.9 9.1 87 1.0 SE 11 17 6 9 - - -

Other Formats:

Comma delimited format used in spreadsheet applications
http://www.bom.gov.au/fwo/IDV60801/IDV60801.94871.axf

JavaScript Object Notation format (JSON) in row-major order
http://www.bom.gov.au/fwo/IDV60801/IDV60801.94871.json